sensor_id;sensor_type;location;lat;lon;timestamp;pressure;altitude;pressure_sealevel;temperature;humidity
47761;BME280;33524;55.434;38.520;2023-05-14T00:01:00;100770.38;;;9.45;65.61
47761;BME280;33524;55.434;38.520;2023-05-14T00:03:28;100781.72;;;9.31;66.12
47761;BME280;33524;55.434;38.520;2023-05-14T00:05:57;100774.12;;;9.41;65.71
47761;BME280;33524;55.434;38.520;2023-05-14T00:08:25;100772.78;;;9.48;64.65
47761;BME280;33524;55.434;38.520;2023-05-14T00:10:53;100778.34;;;9.29;66.37
47761;BME280;33524;55.434;38.520;2023-05-14T00:13:21;100781.25;;;9.24;66.44
47761;BME280;33524;55.434;38.520;2023-05-14T00:15:49;100777.78;;;9.09;67.21
47761;BME280;33524;55.434;38.520;2023-05-14T00:18:18;100781.97;;;9.12;67.29
47761;BME280;33524;55.434;38.520;2023-05-14T00:20:46;100780.56;;;9.21;66.75
47761;BME280;33524;55.434;38.520;2023-05-14T00:23:14;100779.63;;;8.93;67.79
47761;BME280;33524;55.434;38.520;2023-05-14T00:25:42;100791.03;;;8.92;67.94
47761;BME280;33524;55.434;38.520;2023-05-14T00:28:10;100782.78;;;8.84;68.00
47761;BME280;33524;55.434;38.520;2023-05-14T00:30:38;100793.84;;;8.89;67.80
47761;BME280;33524;55.434;38.520;2023-05-14T00:33:07;100794.03;;;8.86;68.30
47761;BME280;33524;55.434;38.520;2023-05-14T00:35:35;100794.59;;;8.91;66.93
47761;BME280;33524;55.434;38.520;2023-05-14T00:38:03;100798.50;;;8.84;68.23
47761;BME280;33524;55.434;38.520;2023-05-14T00:40:32;100796.66;;;8.86;67.33
47761;BME280;33524;55.434;38.520;2023-05-14T00:43:00;100794.66;;;8.75;68.36
47761;BME280;33524;55.434;38.520;2023-05-14T00:45:28;100796.00;;;8.52;69.83
47761;BME280;33524;55.434;38.520;2023-05-14T00:47:56;100801.00;;;8.71;68.96
47761;BME280;33524;55.434;38.520;2023-05-14T00:50:25;100798.41;;;8.55;69.74
47761;BME280;33524;55.434;38.520;2023-05-14T00:52:53;100802.69;;;8.72;67.68
47761;BME280;33524;55.434;38.520;2023-05-14T00:55:21;100795.38;;;9.07;65.04
47761;BME280;33524;55.434;38.520;2023-05-14T00:57:50;100805.38;;;8.56;69.64
47761;BME280;33524;55.434;38.520;2023-05-14T01:00:20;100810.37;;;8.75;66.83
47761;BME280;33524;55.434;38.520;2023-05-14T01:02:48;100803.00;;;8.36;70.28
47761;BME280;33524;55.434;38.520;2023-05-14T01:05:17;100809.78;;;8.08;72.00
47761;BME280;33524;55.434;38.520;2023-05-14T01:13:40;100808.25;;;8.04;72.06
47761;BME280;33524;55.434;38.520;2023-05-14T01:16:12;100802.25;;;8.34;67.68
47761;BME280;33524;55.434;38.520;2023-05-14T01:18:42;100811.22;;;8.14;71.76
47761;BME280;33524;55.434;38.520;2023-05-14T01:21:37;100814.94;;;7.94;72.87
47761;BME280;33524;55.434;38.520;2023-05-14T01:24:07;100816.03;;;7.89;73.25
47761;BME280;33524;55.434;38.520;2023-05-14T01:26:36;100817.81;;;7.89;73.45
47761;BME280;33524;55.434;38.520;2023-05-14T01:29:22;100815.53;;;7.83;74.02
47761;BME280;33524;55.434;38.520;2023-05-14T01:31:55;100818.72;;;8.04;72.71
47761;BME280;33524;55.434;38.520;2023-05-14T01:34:25;100819.91;;;8.14;72.09
47761;BME280;33524;55.434;38.520;2023-05-14T01:36:55;100821.44;;;8.18;71.11
47761;BME280;33524;55.434;38.520;2023-05-14T01:39:24;100823.47;;;8.13;72.43
47761;BME280;33524;55.434;38.520;2023-05-14T01:41:54;100827.44;;;8.20;71.27
47761;BME280;33524;55.434;38.520;2023-05-14T01:44:23;100836.97;;;7.89;73.81
47761;BME280;33524;55.434;38.520;2023-05-14T01:46:51;100833.13;;;7.97;73.62
47761;BME280;33524;55.434;38.520;2023-05-14T01:49:19;100826.00;;;7.99;73.53
47761;BME280;33524;55.434;38.520;2023-05-14T01:51:48;100831.34;;;8.45;68.66
47761;BME280;33524;55.434;38.520;2023-05-14T01:54:16;100824.66;;;8.23;70.59
47761;BME280;33524;55.434;38.520;2023-05-14T01:56:44;100825.75;;;8.19;71.45
47761;BME280;33524;55.434;38.520;2023-05-14T01:59:13;100830.56;;;7.95;73.61
47761;BME280;33524;55.434;38.520;2023-05-14T02:01:41;100833.84;;;8.62;64.27
47761;BME280;33524;55.434;38.520;2023-05-14T02:04:09;100835.12;;;8.07;73.12
47761;BME280;33524;55.434;38.520;2023-05-14T02:06:41;100835.97;;;8.40;69.85
47761;BME280;33524;55.434;38.520;2023-05-14T02:09:09;100832.66;;;8.36;70.99
47761;BME280;33524;55.434;38.520;2023-05-14T02:11:38;100836.84;;;8.08;73.41
47761;BME280;33524;55.434;38.520;2023-05-14T02:14:06;100836.75;;;8.26;71.95
47761;BME280;33524;55.434;38.520;2023-05-14T02:16:34;100838.69;;;8.54;68.15
47761;BME280;33524;55.434;38.520;2023-05-14T02:19:03;100849.69;;;8.45;71.18
47761;BME280;33524;55.434;38.520;2023-05-14T02:21:51;100852.53;;;8.24;72.80
47761;BME280;33524;55.434;38.520;2023-05-14T02:24:19;100851.97;;;8.35;72.46
47761;BME280;33524;55.434;38.520;2023-05-14T02:26:47;100850.78;;;8.41;71.62
47761;BME280;33524;55.434;38.520;2023-05-14T02:29:15;100835.84;;;8.73;65.67
47761;BME280;33524;55.434;38.520;2023-05-14T02:31:43;100861.13;;;8.74;69.62
47761;BME280;33524;55.434;38.520;2023-05-14T02:34:12;100858.06;;;8.52;71.63
47761;BME280;33524;55.434;38.520;2023-05-14T02:36:40;100864.47;;;8.92;65.99
47761;BME280;33524;55.434;38.520;2023-05-14T02:39:08;100864.59;;;9.35;60.86
47761;BME280;33524;55.434;38.520;2023-05-14T02:41:36;100862.62;;;8.94;68.93
47761;BME280;33524;55.434;38.520;2023-05-14T02:44:05;100870.47;;;8.94;69.41
47761;BME280;33524;55.434;38.520;2023-05-14T02:46:33;100872.59;;;9.03;67.99
47761;BME280;33524;55.434;38.520;2023-05-14T02:49:02;100873.91;;;9.11;68.84
47761;BME280;33524;55.434;38.520;2023-05-14T02:51:30;100870.94;;;9.31;64.83
47761;BME280;33524;55.434;38.520;2023-05-14T02:53:58;100869.47;;;9.84;60.32
47761;BME280;33524;55.434;38.520;2023-05-14T02:56:26;100873.69;;;9.58;61.94
47761;BME280;33524;55.434;38.520;2023-05-14T02:58:54;100874.81;;;9.40;67.39
47761;BME280;33524;55.434;38.520;2023-05-14T03:01:23;100875.41;;;9.74;64.64
47761;BME280;33524;55.434;38.520;2023-05-14T03:03:52;100877.13;;;9.30;68.86
47761;BME280;33524;55.434;38.520;2023-05-14T03:06:20;100875.28;;;9.75;63.80
47761;BME280;33524;55.434;38.520;2023-05-14T03:08:48;100880.53;;;9.61;67.17
47761;BME280;33524;55.434;38.520;2023-05-14T03:11:16;100877.03;;;9.32;68.89
47761;BME280;33524;55.434;38.520;2023-05-14T03:13:44;100881.00;;;9.96;61.03
47761;BME280;33524;55.434;38.520;2023-05-14T03:16:12;100881.66;;;9.85;66.53
47761;BME280;33524;55.434;38.520;2023-05-14T03:18:40;100879.41;;;9.65;67.00
47761;BME280;33524;55.434;38.520;2023-05-14T03:21:09;100884.56;;;10.09;65.14
47761;BME280;33524;55.434;38.520;2023-05-14T03:23:37;100892.97;;;10.15;64.37
47761;BME280;33524;55.434;38.520;2023-05-14T03:26:05;100897.87;;;10.35;62.27
47761;BME280;33524;55.434;38.520;2023-05-14T03:28:33;100896.19;;;10.61;61.99
47761;BME280;33524;55.434;38.520;2023-05-14T03:31:01;100896.62;;;10.95;57.77
47761;BME280;33524;55.434;38.520;2023-05-14T03:33:30;100895.56;;;10.58;63.37
47761;BME280;33524;55.434;38.520;2023-05-14T03:35:58;100895.00;;;10.80;60.94
47761;BME280;33524;55.434;38.520;2023-05-14T03:38:26;100893.22;;;10.80;59.95
47761;BME280;33524;55.434;38.520;2023-05-14T03:40:55;100897.97;;;10.34;65.18
47761;BME280;33524;55.434;38.520;2023-05-14T03:43:23;100898.69;;;10.50;63.52
47761;BME280;33524;55.434;38.520;2023-05-14T03:45:51;100895.13;;;10.91;60.68
47761;BME280;33524;55.434;38.520;2023-05-14T03:48:20;100898.63;;;10.92;61.52
47761;BME280;33524;55.434;38.520;2023-05-14T03:50:48;100901.50;;;10.74;61.78
47761;BME280;33524;55.434;38.520;2023-05-14T03:53:16;100900.78;;;10.85;61.98
47761;BME280;33524;55.434;38.520;2023-05-14T03:55:45;100909.88;;;10.66;63.29
47761;BME280;33524;55.434;38.520;2023-05-14T03:58:13;100906.28;;;10.55;64.67
47761;BME280;33524;55.434;38.520;2023-05-14T04:00:42;100909.56;;;11.38;57.21
47761;BME280;33524;55.434;38.520;2023-05-14T04:03:10;100912.16;;;11.13;62.79
47761;BME280;33524;55.434;38.520;2023-05-14T04:05:38;100901.44;;;11.67;57.44
47761;BME280;33524;55.434;38.520;2023-05-14T04:08:07;100904.38;;;12.50;55.90
47761;BME280;33524;55.434;38.520;2023-05-14T04:10:35;100906.69;;;13.15;51.44
47761;BME280;33524;55.434;38.520;2023-05-14T04:13:03;100893.91;;;12.97;55.12
47761;BME280;33524;55.434;38.520;2023-05-14T04:15:32;100902.66;;;13.22;52.27
47761;BME280;33524;55.434;38.520;2023-05-14T04:18:00;100901.53;;;13.60;52.09
47761;BME280;33524;55.434;38.520;2023-05-14T04:20:29;100896.47;;;15.11;45.91
47761;BME280;33524;55.434;38.520;2023-05-14T04:22:57;100898.59;;;14.64;47.64
47761;BME280;33524;55.434;38.520;2023-05-14T04:25:25;100904.66;;;15.08;46.82
47761;BME280;33524;55.434;38.520;2023-05-14T04:27:53;100901.78;;;15.11;47.11
47761;BME280;33524;55.434;38.520;2023-05-14T04:30:21;100909.66;;;15.23;46.92
47761;BME280;33524;55.434;38.520;2023-05-14T04:32:50;100908.59;;;14.61;49.98
47761;BME280;33524;55.434;38.520;2023-05-14T04:35:18;100892.50;;;14.41;49.88
47761;BME280;33524;55.434;38.520;2023-05-14T04:37:52;100905.66;;;15.49;47.10
47761;BME280;33524;55.434;38.520;2023-05-14T04:40:20;100912.06;;;14.50;51.22
47761;BME280;33524;55.434;38.520;2023-05-14T04:42:49;100905.41;;;15.52;48.14
47761;BME280;33524;55.434;38.520;2023-05-14T04:45:18;100919.47;;;13.90;53.14
47761;BME280;33524;55.434;38.520;2023-05-14T04:47:46;100922.22;;;14.33;51.63
47761;BME280;33524;55.434;38.520;2023-05-14T04:50:14;100906.78;;;16.78;45.04
47761;BME280;33524;55.434;38.520;2023-05-14T04:52:43;100908.59;;;16.08;47.00
47761;BME280;33524;55.434;38.520;2023-05-14T04:55:11;100907.75;;;17.26;44.42
47761;BME280;33524;55.434;38.520;2023-05-14T04:57:39;100913.53;;;16.22;46.21
47761;BME280;33524;55.434;38.520;2023-05-14T05:00:08;100904.66;;;16.72;45.77
47761;BME280;33524;55.434;38.520;2023-05-14T05:02:37;100913.06;;;14.38;51.82
47761;BME280;33524;55.434;38.520;2023-05-14T05:05:05;100916.31;;;16.11;48.89
47761;BME280;33524;55.434;38.520;2023-05-14T05:07:34;100914.41;;;16.32;48.37
47761;BME280;33524;55.434;38.520;2023-05-14T05:10:14;100915.59;;;15.78;48.51
47761;BME280;33524;55.434;38.520;2023-05-14T05:12:42;100912.50;;;17.32;46.56
47761;BME280;33524;55.434;38.520;2023-05-14T05:15:10;100904.31;;;17.72;44.37
47761;BME280;33524;55.434;38.520;2023-05-14T05:17:39;100915.75;;;17.92;42.30
47761;BME280;33524;55.434;38.520;2023-05-14T05:20:08;100905.13;;;17.06;45.85
47761;BME280;33524;55.434;38.520;2023-05-14T05:22:36;100911.13;;;18.22;44.59
47761;BME280;33524;55.434;38.520;2023-05-14T05:25:05;100901.13;;;19.24;42.13
47761;BME280;33524;55.434;38.520;2023-05-14T05:27:34;100900.19;;;19.59;41.68
47761;BME280;33524;55.434;38.520;2023-05-14T05:30:02;100903.59;;;19.95;40.85
47761;BME280;33524;55.434;38.520;2023-05-14T05:32:33;100894.00;;;21.27;38.60
47761;BME280;33524;55.434;38.520;2023-05-14T05:35:02;100895.75;;;19.68;38.85
47761;BME280;33524;55.434;38.520;2023-05-14T05:37:30;100888.81;;;20.93;39.17
47761;BME280;33524;55.434;38.520;2023-05-14T05:39:58;100890.00;;;21.23;39.31
47761;BME280;33524;55.434;38.520;2023-05-14T05:42:30;100890.03;;;21.87;35.26
47761;BME280;33524;55.434;38.520;2023-05-14T05:44:57;100893.34;;;21.17;39.67
47761;BME280;33524;55.434;38.520;2023-05-14T05:47:25;100892.50;;;20.75;36.06
47761;BME280;33524;55.434;38.520;2023-05-14T05:49:54;100900.00;;;21.62;39.62
47761;BME280;33524;55.434;38.520;2023-05-14T05:52:34;100895.50;;;20.81;39.92
47761;BME280;33524;55.434;38.520;2023-05-14T05:55:03;100904.31;;;16.96;41.47
47761;BME280;33524;55.434;38.520;2023-05-14T05:57:31;100905.63;;;17.96;42.98
47761;BME280;33524;55.434;38.520;2023-05-14T05:59:59;100874.75;;;21.24;40.52
47761;BME280;33524;55.434;38.520;2023-05-14T06:02:31;100893.66;;;20.81;34.21
47761;BME280;33524;55.434;38.520;2023-05-14T06:05:00;100886.19;;;19.57;40.42
47761;BME280;33524;55.434;38.520;2023-05-14T06:07:29;100908.59;;;17.36;39.01
47761;BME280;33524;55.434;38.520;2023-05-14T06:09:57;100905.91;;;18.94;37.98
47761;BME280;33524;55.434;38.520;2023-05-14T06:12:38;100908.75;;;18.65;45.36
47761;BME280;33524;55.434;38.520;2023-05-14T06:15:07;100903.41;;;20.40;33.72
47761;BME280;33524;55.434;38.520;2023-05-14T06:17:35;100904.03;;;21.09;37.66
47761;BME280;33524;55.434;38.520;2023-05-14T06:20:04;100900.28;;;21.67;36.57
47761;BME280;33524;55.434;38.520;2023-05-14T06:22:34;100886.97;;;21.18;39.96
47761;BME280;33524;55.434;38.520;2023-05-14T06:25:03;100887.09;;;21.58;35.82
47761;BME280;33524;55.434;38.520;2023-05-14T06:27:33;100889.28;;;24.59;32.45
47761;BME280;33524;55.434;38.520;2023-05-14T06:30:01;100883.63;;;23.43;30.13
47761;BME280;33524;55.434;38.520;2023-05-14T06:32:32;100887.69;;;23.69;35.60
47761;BME280;33524;55.434;38.520;2023-05-14T06:35:00;100880.31;;;24.73;34.75
47761;BME280;33524;55.434;38.520;2023-05-14T06:37:31;100889.97;;;24.31;35.37
47761;BME280;33524;55.434;38.520;2023-05-14T06:40:00;100883.69;;;24.24;30.04
47761;BME280;33524;55.434;38.520;2023-05-14T06:42:31;100892.59;;;23.35;36.57
47761;BME280;33524;55.434;38.520;2023-05-14T06:45:00;100898.94;;;20.56;42.09
47761;BME280;33524;55.434;38.520;2023-05-14T06:47:31;100907.53;;;17.00;39.92
47761;BME280;33524;55.434;38.520;2023-05-14T06:50:00;100897.72;;;16.90;43.05
47761;BME280;33524;55.434;38.520;2023-05-14T06:52:32;100902.81;;;16.43;41.01
47761;BME280;33524;55.434;38.520;2023-05-14T06:55:00;100896.19;;;22.35;38.79
47761;BME280;33524;55.434;38.520;2023-05-14T06:57:33;100900.69;;;20.23;35.39
47761;BME280;33524;55.434;38.520;2023-05-14T07:00:02;100912.94;;;17.94;37.65
47761;BME280;33524;55.434;38.520;2023-05-14T07:02:34;100901.00;;;21.53;32.18
47761;BME280;33524;55.434;38.520;2023-05-14T07:05:02;100910.84;;;17.41;39.45
47761;BME280;33524;55.434;38.520;2023-05-14T07:07:31;100914.19;;;18.91;38.63
47761;BME280;33524;55.434;38.520;2023-05-14T07:09:59;100904.44;;;17.71;34.70
47761;BME280;33524;55.434;38.520;2023-05-14T07:12:30;100907.91;;;16.56;37.44
47761;BME280;33524;55.434;38.520;2023-05-14T07:14:58;100914.25;;;15.93;39.27
47761;BME280;33524;55.434;38.520;2023-05-14T07:17:26;100914.94;;;15.44;40.83
47761;BME280;33524;55.434;38.520;2023-05-14T07:19:55;100918.94;;;17.39;38.82
47761;BME280;33524;55.434;38.520;2023-05-14T07:22:23;100917.97;;;17.40;38.56
47761;BME280;33524;55.434;38.520;2023-05-14T07:24:51;100912.25;;;19.37;38.45
47761;BME280;33524;55.434;38.520;2023-05-14T07:27:20;100912.31;;;20.06;35.42
47761;BME280;33524;55.434;38.520;2023-05-14T07:29:49;100913.97;;;21.81;32.13
47761;BME280;33524;55.434;38.520;2023-05-14T07:32:17;100920.38;;;22.50;36.55
47761;BME280;33524;55.434;38.520;2023-05-14T07:34:46;100925.75;;;21.39;37.98
47761;BME280;33524;55.434;38.520;2023-05-14T07:37:31;100918.91;;;21.36;35.39
47761;BME280;33524;55.434;38.520;2023-05-14T07:40:00;100918.81;;;24.37;32.53
47761;BME280;33524;55.434;38.520;2023-05-14T07:42:31;100918.47;;;25.27;27.14
47761;BME280;33524;55.434;38.520;2023-05-14T07:45:04;100911.87;;;26.54;30.17
47761;BME280;33524;55.434;38.520;2023-05-14T07:47:33;100922.03;;;22.20;28.24
47761;BME280;33524;55.434;38.520;2023-05-14T07:50:02;100923.72;;;19.55;33.09
47761;BME280;33524;55.434;38.520;2023-05-14T07:52:32;100932.78;;;22.51;29.48
47761;BME280;33524;55.434;38.520;2023-05-14T07:55:01;100930.12;;;21.15;37.52
47761;BME280;33524;55.434;38.520;2023-05-14T07:57:31;100913.38;;;25.73;28.76
47761;BME280;33524;55.434;38.520;2023-05-14T08:00:00;100928.34;;;22.35;35.03
47761;BME280;33524;55.434;38.520;2023-05-14T08:02:39;100926.84;;;21.85;29.46
47761;BME280;33524;55.434;38.520;2023-05-14T08:05:08;100932.66;;;20.07;31.59
47761;BME280;33524;55.434;38.520;2023-05-14T08:07:54;100950.44;;;16.85;36.42
47761;BME280;33524;55.434;38.520;2023-05-14T08:10:22;100937.63;;;16.40;37.66
47761;BME280;33524;55.434;38.520;2023-05-14T08:12:51;100949.28;;;18.13;45.69
47761;BME280;33524;55.434;38.520;2023-05-14T08:15:18;100936.50;;;22.03;38.17
47761;BME280;33524;55.434;38.520;2023-05-14T08:17:47;100927.69;;;18.89;42.62
47761;BME280;33524;55.434;38.520;2023-05-14T08:20:15;100931.53;;;17.47;35.54
47761;BME280;33524;55.434;38.520;2023-05-14T08:22:43;100939.03;;;19.53;36.99
47761;BME280;33524;55.434;38.520;2023-05-14T08:25:14;100903.25;;;26.92;29.12
47761;BME280;33524;55.434;38.520;2023-05-14T08:27:42;100935.63;;;19.95;31.69
47761;BME280;33524;55.434;38.520;2023-05-14T08:30:11;100919.91;;;21.43;31.71
47761;BME280;33524;55.434;38.520;2023-05-14T08:32:39;100912.50;;;20.12;32.00
47761;BME280;33524;55.434;38.520;2023-05-14T08:35:08;100927.63;;;17.51;36.44
47761;BME280;33524;55.434;38.520;2023-05-14T08:37:38;100936.88;;;17.27;36.30
47761;BME280;33524;55.434;38.520;2023-05-14T08:40:08;100939.13;;;15.92;39.24
47761;BME280;33524;55.434;38.520;2023-05-14T08:42:56;100941.53;;;15.53;39.22
47761;BME280;33524;55.434;38.520;2023-05-14T08:45:30;100928.44;;;16.73;44.98
47761;BME280;33524;55.434;38.520;2023-05-14T08:48:02;100923.75;;;17.16;36.00
47761;BME280;33524;55.434;38.520;2023-05-14T08:50:36;100928.50;;;19.52;36.17
47761;BME280;33524;55.434;38.520;2023-05-14T08:53:04;100910.53;;;23.20;33.23
47761;BME280;33524;55.434;38.520;2023-05-14T08:55:32;100921.84;;;21.74;30.12
47761;BME280;33524;55.434;38.520;2023-05-14T08:58:01;100913.91;;;23.52;33.71
47761;BME280;33524;55.434;38.520;2023-05-14T09:00:29;100911.19;;;20.67;31.68
47761;BME280;33524;55.434;38.520;2023-05-14T09:02:58;100911.34;;;23.88;31.16
47761;BME280;33524;55.434;38.520;2023-05-14T09:05:28;100905.25;;;23.27;31.24
47761;BME280;33524;55.434;38.520;2023-05-14T09:07:56;100909.31;;;24.78;27.52
47761;BME280;33524;55.434;38.520;2023-05-14T09:10:26;100918.25;;;22.46;32.59
47761;BME280;33524;55.434;38.520;2023-05-14T09:12:55;100902.53;;;25.60;31.27
47761;BME280;33524;55.434;38.520;2023-05-14T09:15:24;100910.53;;;24.54;25.42
47761;BME280;33524;55.434;38.520;2023-05-14T09:17:55;100900.97;;;24.94;24.71
47761;BME280;33524;55.434;38.520;2023-05-14T09:20:24;100914.22;;;21.05;29.88
47761;BME280;33524;55.434;38.520;2023-05-14T09:22:53;100924.28;;;18.24;33.45
47761;BME280;33524;55.434;38.520;2023-05-14T09:25:25;100919.19;;;20.59;40.16
47761;BME280;33524;55.434;38.520;2023-05-14T09:27:54;100919.31;;;20.07;32.71
47761;BME280;33524;55.434;38.520;2023-05-14T09:30:25;100937.97;;;18.01;33.83
47761;BME280;33524;55.434;38.520;2023-05-14T09:32:54;100922.44;;;17.40;35.39
47761;BME280;33524;55.434;38.520;2023-05-14T09:35:23;100916.06;;;17.03;39.23
47761;BME280;33524;55.434;38.520;2023-05-14T09:37:53;100931.72;;;17.92;35.41
47761;BME280;33524;55.434;38.520;2023-05-14T09:40:22;100927.06;;;18.95;36.39
47761;BME280;33524;55.434;38.520;2023-05-14T09:43:08;100912.88;;;21.01;31.24
47761;BME280;33524;55.434;38.520;2023-05-14T09:45:36;100911.37;;;20.74;30.81
47761;BME280;33524;55.434;38.520;2023-05-14T09:48:04;100902.50;;;23.65;32.79
47761;BME280;33524;55.434;38.520;2023-05-14T09:50:41;100897.31;;;22.72;34.57
47761;BME280;33524;55.434;38.520;2023-05-14T09:53:10;100908.13;;;21.77;30.37
47761;BME280;33524;55.434;38.520;2023-05-14T09:55:38;100910.66;;;22.58;27.38
47761;BME280;33524;55.434;38.520;2023-05-14T09:58:06;100910.03;;;19.59;33.34
47761;BME280;33524;55.434;38.520;2023-05-14T10:00:35;100895.94;;;24.12;32.73
47761;BME280;33524;55.434;38.520;2023-05-14T10:03:05;100910.50;;;22.51;32.59
47761;BME280;33524;55.434;38.520;2023-05-14T10:05:51;100899.44;;;24.27;32.81
47761;BME280;33524;55.434;38.520;2023-05-14T10:08:26;100902.19;;;21.34;29.05
47761;BME280;33524;55.434;38.520;2023-05-14T10:10:55;100910.22;;;19.13;32.65
47761;BME280;33524;55.434;38.520;2023-05-14T10:13:38;100913.94;;;18.21;33.44
47761;BME280;33524;55.434;38.520;2023-05-14T10:16:10;100922.16;;;18.00;34.45
47761;BME280;33524;55.434;38.520;2023-05-14T10:18:42;100920.59;;;17.50;34.99
47761;BME280;33524;55.434;38.520;2023-05-14T10:21:34;100923.31;;;17.87;34.25
47761;BME280;33524;55.434;38.520;2023-05-14T10:24:05;100922.66;;;18.13;34.26
47761;BME280;33524;55.434;38.520;2023-05-14T10:26:36;100913.31;;;17.52;35.54
47761;BME280;33524;55.434;38.520;2023-05-14T10:29:06;100910.84;;;17.41;36.03
47761;BME280;33524;55.434;38.520;2023-05-14T10:31:46;100912.50;;;17.32;36.18
47761;BME280;33524;55.434;38.520;2023-05-14T10:34:40;100897.47;;;20.62;32.33
47761;BME280;33524;55.434;38.520;2023-05-14T10:37:13;100896.38;;;18.46;39.22
47761;BME280;33524;55.434;38.520;2023-05-14T10:39:53;100900.84;;;20.81;34.43
47761;BME280;33524;55.434;38.520;2023-05-14T10:42:26;100900.84;;;21.54;30.45
47761;BME280;33524;55.434;38.520;2023-05-14T10:47:31;100904.19;;;21.24;31.18
47761;BME280;33524;55.434;38.520;2023-05-14T10:50:03;100900.25;;;22.77;30.56
47761;BME280;33524;55.434;38.520;2023-05-14T10:52:32;100893.66;;;23.94;29.93
47761;BME280;33524;55.434;38.520;2023-05-14T10:55:20;100902.78;;;22.79;28.62
47761;BME280;33524;55.434;38.520;2023-05-14T10:57:49;100908.22;;;22.00;31.25
47761;BME280;33524;55.434;38.520;2023-05-14T11:00:19;100907.66;;;20.67;31.13
47761;BME280;33524;55.434;38.520;2023-05-14T11:02:54;100913.84;;;20.16;32.31
47761;BME280;33524;55.434;38.520;2023-05-14T11:05:24;100912.28;;;19.19;33.75
47761;BME280;33524;55.434;38.520;2023-05-14T11:07:56;100920.91;;;18.31;34.67
47761;BME280;33524;55.434;38.520;2023-05-14T11:10:24;100904.53;;;19.86;33.54
47761;BME280;33524;55.434;38.520;2023-05-14T11:12:56;100899.31;;;18.07;35.44
47761;BME280;33524;55.434;38.520;2023-05-14T11:15:26;100903.69;;;18.89;35.88
47761;BME280;33524;55.434;38.520;2023-05-14T11:17:55;100892.72;;;19.10;34.42
47761;BME280;33524;55.434;38.520;2023-05-14T11:20:23;100898.72;;;19.12;34.06
47761;BME280;33524;55.434;38.520;2023-05-14T11:22:52;100889.47;;;21.52;33.45
47761;BME280;33524;55.434;38.520;2023-05-14T11:25:22;100904.34;;;19.09;32.85
47761;BME280;33524;55.434;38.520;2023-05-14T11:27:53;100908.78;;;19.97;32.57
47761;BME280;33524;55.434;38.520;2023-05-14T11:30:24;100883.50;;;22.98;30.17
47761;BME280;33524;55.434;38.520;2023-05-14T11:32:54;100897.19;;;20.82;31.11
47761;BME280;33524;55.434;38.520;2023-05-14T11:35:22;100894.59;;;20.55;32.17
47761;BME280;33524;55.434;38.520;2023-05-14T11:37:51;100901.09;;;22.15;30.42
47761;BME280;33524;55.434;38.520;2023-05-14T11:40:32;100890.66;;;20.68;31.40
47761;BME280;33524;55.434;38.520;2023-05-14T11:43:00;100898.09;;;18.47;34.83
47761;BME280;33524;55.434;38.520;2023-05-14T11:45:28;100891.72;;;18.75;34.44
47761;BME280;33524;55.434;38.520;2023-05-14T11:47:57;100913.78;;;17.94;35.60
47761;BME280;33524;55.434;38.520;2023-05-14T11:50:25;100911.66;;;17.51;36.30
47761;BME280;33524;55.434;38.520;2023-05-14T11:53:00;100911.22;;;18.03;36.78
47761;BME280;33524;55.434;38.520;2023-05-14T11:55:29;100909.06;;;18.62;35.17
47761;BME280;33524;55.434;38.520;2023-05-14T11:57:57;100906.28;;;17.61;36.12
47761;BME280;33524;55.434;38.520;2023-05-14T12:00:25;100914.94;;;17.72;36.16
47761;BME280;33524;55.434;38.520;2023-05-14T12:02:54;100903.09;;;18.50;35.32
47761;BME280;33524;55.434;38.520;2023-05-14T12:05:24;100908.91;;;17.80;36.02
47761;BME280;33524;55.434;38.520;2023-05-14T12:07:55;100900.69;;;18.74;35.46
47761;BME280;33524;55.434;38.520;2023-05-14T12:10:24;100901.19;;;19.58;34.04
47761;BME280;33524;55.434;38.520;2023-05-14T12:12:52;100901.50;;;21.48;32.68
47761;BME280;33524;55.434;38.520;2023-05-14T12:15:22;100898.34;;;21.45;33.18
47761;BME280;33524;55.434;38.520;2023-05-14T12:17:50;100897.16;;;20.65;32.05
47761;BME280;33524;55.434;38.520;2023-05-14T12:20:18;100886.66;;;20.88;31.64
47761;BME280;33524;55.434;38.520;2023-05-14T12:22:47;100891.97;;;21.62;30.30
47761;BME280;33524;55.434;38.520;2023-05-14T12:25:15;100894.16;;;21.42;30.81
47761;BME280;33524;55.434;38.520;2023-05-14T12:27:47;100887.81;;;21.02;31.61
47761;BME280;33524;55.434;38.520;2023-05-14T12:30:15;100895.59;;;19.95;31.32
47761;BME280;33524;55.434;38.520;2023-05-14T12:32:48;100892.47;;;20.08;33.04
47761;BME280;33524;55.434;38.520;2023-05-14T12:35:20;100896.22;;;18.75;33.82
47761;BME280;33524;55.434;38.520;2023-05-14T12:37:50;100898.91;;;18.02;35.81
47761;BME280;33524;55.434;38.520;2023-05-14T12:40:19;100898.50;;;18.24;35.95
47761;BME280;33524;55.434;38.520;2023-05-14T12:42:47;100903.12;;;17.47;36.68
47761;BME280;33524;55.434;38.520;2023-05-14T12:45:15;100902.63;;;17.14;36.75
47761;BME280;33524;55.434;38.520;2023-05-14T12:47:43;100898.41;;;17.22;37.17
47761;BME280;33524;55.434;38.520;2023-05-14T12:50:12;100906.59;;;17.58;36.66
47761;BME280;33524;55.434;38.520;2023-05-14T12:52:40;100905.81;;;17.28;35.68
47761;BME280;33524;55.434;38.520;2023-05-14T12:55:09;100904.31;;;18.10;34.80
47761;BME280;33524;55.434;38.520;2023-05-14T12:57:37;100886.81;;;20.79;30.87
47761;BME280;33524;55.434;38.520;2023-05-14T13:00:07;100891.03;;;20.22;31.18
47761;BME280;33524;55.434;38.520;2023-05-14T13:02:47;100891.97;;;20.13;31.30
47761;BME280;33524;55.434;38.520;2023-05-14T13:05:16;100888.66;;;22.00;27.96